Weather History for Monett, MO

Change the Weather History Date:

Thursday, November 22, 2012

  Actual Average (KJLN) Record (KJLN)
Temperature  
Mean Temperature 58 °F 45 °F  
Max Temperature 66 °F 56 °F 77 °F (1955)
Min Temperature 50 °F 35 °F 19 °F (1964)
Degree Days  
Heating Degree Days 7 20  
Month to date heating degree days 331  
Since 1 July heating degree days 583  
Cooling Degree Days 0 0  
Month to date cooling degree days 5  
Year to date cooling degree days 1696  
Growing Degree Days 8 (Base 50)    
Moisture  
Dew Point 42 °F    
Average Humidity 56    
Maximum Humidity 77    
Minimum Humidity 47    
Precipitation  
Precipitation 0.00 in 0.12 in 2.03 in (1992)
Month to date precipitation 2.82  
Year to date precipitation 42.77  
Sea Level Pressure  
Sea Level Pressure 30.04 in    
Wind  
Wind Speed 12 mph (South)    
Max Wind Speed 24 mph    
Max Gust Speed 33 mph    
Visibility 10 miles    
Events Rain , Thunderstorm    
T = Trace of Precipitation, MM = Missing Value Source: NWS Daily Summary

Daily Weather History Graph

Daily Weather History Graph

Search for Another Location

Airport:

Trip Planner

Search our weather history database for the weather conditions in past years. The results will help you decide how hot, cold, wet, or windy it might be!

Date:

Astronomy

Nov. 22, 2012 Rise Set
Actual Time 7:02 AM CST 5:02 PM CST
Civil Twilight 6:34 AM CST 5:30 PM CST
Nautical Twilight 6:02 AM CST 6:02 PM CST
Astronomical Twilight 5:31 AM CST 6:33 PM CST
Moon 1:41 PM CST (11/22) 1:30 AM CST (11/22)
Length of Visible Light 10h 56m
Length of Day
10h 00m
Waxing Gibbous, 71% of the Moon is Illuminated
Nov 22
Waxing Gibbous
Nov 28
Full
Dec 6
Last Quarter
Dec 13
New
Dec 19
First Quarter

Hourly Weather History & Observations

Time (CST) Temp. Dew Point Humidity Pressure Visibility Wind Dir Wind Speed Gust Speed Precip Events Conditions
12:15 AM 51.8 °F 37.4 °F 58% 30.08 in 10.0 mi SSE 10.4 mph - N/A   Clear
12:35 AM 51.8 °F 37.4 °F 58% 30.08 in 10.0 mi SSE 11.5 mph - N/A   Clear
12:55 AM 51.8 °F 37.4 °F 58% 30.08 in 10.0 mi SSE 10.4 mph - N/A   Clear
1:15 AM 51.8 °F 37.4 °F 58% 30.07 in 10.0 mi SSE 10.4 mph - N/A   Clear
1:35 AM 50.0 °F 37.4 °F 62% 30.07 in 10.0 mi SSE 8.1 mph - N/A   Clear
1:55 AM 50.0 °F 37.4 °F 62% 30.06 in 10.0 mi SSE 8.1 mph - N/A   Clear
2:15 AM 50.0 °F 37.4 °F 62% 30.06 in 10.0 mi SSE 8.1 mph - N/A   Clear
2:35 AM 50.0 °F 37.4 °F 62% 30.05 in 10.0 mi SSE 9.2 mph - N/A   Clear
2:55 AM 50.0 °F 39.2 °F 66% 30.05 in 10.0 mi SE 6.9 mph - N/A   Clear
3:15 AM 50.0 °F 39.2 °F 66% 30.05 in 10.0 mi SE 6.9 mph - N/A   Clear
3:35 AM 50.0 °F 39.2 °F 66% 30.05 in 10.0 mi SSE 5.8 mph - N/A   Clear
3:55 AM 50.0 °F 39.2 °F 66% 30.05 in 10.0 mi SSE 6.9 mph - N/A   Clear
4:15 AM 51.8 °F 39.2 °F 62% 30.04 in 10.0 mi SSE 10.4 mph - N/A   Clear
4:35 AM 53.6 °F 39.2 °F 58% 30.04 in 10.0 mi SSE 9.2 mph - N/A   Clear
4:55 AM 53.6 °F 39.2 °F 58% 30.04 in 10.0 mi South 10.4 mph - N/A   Clear
5:15 AM 55.4 °F 39.2 °F 54% 30.04 in 10.0 mi South 10.4 mph - N/A   Clear
5:35 AM 55.4 °F 39.2 °F 54% 30.03 in 10.0 mi South 11.5 mph - N/A   Clear
5:55 AM 55.4 °F 39.2 °F 54% 30.04 in 10.0 mi South 11.5 mph 16.1 mph N/A   Clear
6:15 AM 55.4 °F 37.4 °F 51% 30.04 in 10.0 mi South 13.8 mph - N/A   Clear
6:35 AM 55.4 °F 37.4 °F 51% 30.03 in 10.0 mi South 15.0 mph 20.7 mph N/A   Clear
6:55 AM 55.4 °F 37.4 °F 51% 30.04 in 10.0 mi South 16.1 mph - N/A   Clear
7:15 AM 55.4 °F 37.4 °F 51% 30.04 in 10.0 mi South 13.8 mph - N/A   Clear
7:35 AM 55.4 °F 37.4 °F 51% 30.04 in 10.0 mi South 13.8 mph - N/A   Clear
7:55 AM 55.4 °F 39.2 °F 54% 30.04 in 10.0 mi South 16.1 mph - N/A   Clear
8:15 AM 57.2 °F 39.2 °F 51% 30.05 in 10.0 mi South 15.0 mph 21.9 mph N/A   Clear
8:35 AM 57.2 °F 41.0 °F 55% 30.04 in 10.0 mi South 18.4 mph 24.2 mph N/A   Clear
8:55 AM 59.0 °F 41.0 °F 51% 30.04 in 10.0 mi South 19.6 mph 25.3 mph N/A   Clear
9:15 AM 59.0 °F 41.0 °F 51% 30.05 in 10.0 mi SSW 18.4 mph 23.0 mph N/A   Clear
9:35 AM 59.0 °F 41.0 °F 51% 30.05 in 10.0 mi South 16.1 mph 23.0 mph N/A   Clear
9:55 AM 59.0 °F 42.8 °F 55% 30.05 in 10.0 mi South 13.8 mph 20.7 mph N/A   Clear
10:15 AM 59.0 °F 42.8 °F 55% 30.05 in 10.0 mi South 15.0 mph - N/A   Clear
10:35 AM 60.8 °F 42.8 °F 52% 30.04 in 10.0 mi South 19.6 mph 23.0 mph N/A   Clear
10:55 AM 60.8 °F 42.8 °F 52% 30.03 in 10.0 mi South 17.3 mph 25.3 mph N/A   Clear
11:15 AM 62.6 °F 44.6 °F 52% 30.02 in 10.0 mi SSW 16.1 mph 26.5 mph N/A   Clear
11:35 AM 62.6 °F 44.6 °F 52% 30.01 in 10.0 mi South 15.0 mph 23.0 mph N/A   Clear
11:55 AM 62.6 °F 44.6 °F 52% 30.00 in 10.0 mi South 15.0 mph - N/A   Clear
12:15 PM 62.6 °F 44.6 °F 52% 30.00 in 10.0 mi South 13.8 mph - N/A   Clear
12:35 PM 64.4 °F 44.6 °F 49% 29.99 in 10.0 mi South 13.8 mph - N/A   Clear
12:55 PM 66.2 °F 46.4 °F 49% 29.97 in 10.0 mi SSW 24.2 mph 31.1 mph N/A   Clear
1:15 PM 64.4 °F 44.6 °F 49% 29.97 in 10.0 mi SSW 19.6 mph 31.1 mph N/A   Clear
1:35 PM 64.4 °F 46.4 °F 52% 29.97 in 10.0 mi SSW 18.4 mph 23.0 mph N/A   Clear
1:55 PM 64.4 °F 44.6 °F 49% 29.97 in 10.0 mi SSW 16.1 mph 28.8 mph N/A   Scattered Clouds
2:15 PM 64.4 °F 44.6 °F 49% 29.96 in 10.0 mi South 17.3 mph 23.0 mph N/A   Scattered Clouds
2:35 PM 64.4 °F 44.6 °F 49% 29.95 in 10.0 mi South 16.1 mph - N/A   Scattered Clouds
2:55 PM 64.4 °F 46.4 °F 52% 29.95 in 10.0 mi South 17.3 mph 24.2 mph N/A   Clear
3:15 PM 64.4 °F 44.6 °F 49% 29.94 in 10.0 mi South 20.7 mph 26.5 mph N/A   Scattered Clouds
3:55 PM 64.4 °F 46.4 °F 52% 29.96 in 10.0 mi South 15.0 mph 19.6 mph N/A   Mostly Cloudy
4:15 PM 64.4 °F 44.6 °F 49% 29.96 in 10.0 mi South 13.8 mph 18.4 mph N/A   Clear
4:35 PM 62.6 °F 46.4 °F 55% 29.96 in 10.0 mi South 15.0 mph 21.9 mph N/A   Scattered Clouds
4:55 PM 62.6 °F 44.6 °F 52% 29.97 in 10.0 mi South 16.1 mph 21.9 mph N/A   Clear
5:15 PM 62.6 °F 44.6 °F 52% 29.97 in 10.0 mi South 12.7 mph 19.6 mph N/A   Clear
5:35 PM 62.6 °F 44.6 °F 52% 29.99 in 10.0 mi SSW 12.7 mph - N/A   Clear
5:55 PM 60.8 °F 44.6 °F 55% 30.01 in 10.0 mi SW 8.1 mph - N/A   Clear
6:35 PM 59.0 °F 44.6 °F 59% 30.04 in 10.0 mi SW 6.9 mph - N/A   Scattered Clouds
6:55 PM 59.0 °F 46.4 °F 63% 30.04 in 10.0 mi SSW 5.8 mph - N/A   Overcast
7:15 PM 60.8 °F 44.6 °F 55% 30.04 in 10.0 mi SSW 6.9 mph - N/A   Overcast
7:55 PM 59.0 °F 44.6 °F 59% 30.04 in 10.0 mi South 9.2 mph - N/A Thunderstorm Scattered Clouds
8:15 PM 57.2 °F 46.4 °F 67% 30.05 in 10.0 mi SSW 8.1 mph - N/A   Scattered Clouds
8:35 PM 57.2 °F 46.4 °F 67% 30.05 in 10.0 mi SSW 6.9 mph - N/A   Scattered Clouds
8:55 PM 57.2 °F 46.4 °F 67% 30.06 in 10.0 mi SSW 5.8 mph - N/A   Mostly Cloudy
9:15 PM 57.2 °F 46.4 °F 67% 30.08 in 10.0 mi SW 5.8 mph - N/A   Overcast
9:35 PM 59.0 °F 46.4 °F 63% 30.11 in 10.0 mi West 8.1 mph - N/A   Overcast
9:55 PM 59.0 °F 46.4 °F 63% 30.12 in 10.0 mi West 6.9 mph - N/A   Overcast
10:15 PM 57.2 °F 50.0 °F 77% 30.14 in 10.0 mi NNW 16.1 mph - N/A Rain Rain
10:35 PM 55.4 °F 46.4 °F 72% 30.14 in 10.0 mi North 15.0 mph 23.0 mph N/A   Overcast
10:55 PM 55.4 °F 44.6 °F 67% 30.17 in 10.0 mi North 19.6 mph 25.3 mph N/A   Overcast
11:15 PM 55.4 °F 41.0 °F 58% 30.19 in 10.0 mi North 23.0 mph 33.4 mph N/A   Overcast
11:35 PM 53.6 °F 35.6 °F 51% 30.21 in 10.0 mi North 23.0 mph 29.9 mph N/A   Overcast
11:55 PM 53.6 °F 33.8 °F 47% 30.22 in 10.0 mi North 19.6 mph 31.1 mph N/A   Overcast